Time;durP1;ratioP1;P1;durP2;ratioP2;P2;SDS_P1;SDS_P2;PMS_P1;PMS_P2;Temp;Humidity;BMP_temperature;BMP_pressure;BME280_temperature;BME280_humidity;BME280_pressure;Samples;Min_cycle;Max_cycle;Signal;HPM_P1;HPM_P2
2022/11/23 00:00:03;;;;;;;6.03;2.35;;;9.10;72.60;;;;;;4991239;28;20038;-80
2022/11/23 00:02:53;;;;;;;7.53;2.20;;;9.10;72.60;;;;;;4984326;28;20057;-79
2022/11/23 00:05:37;;;;;;;3.15;1.73;;;9.10;72.60;;;;;;4986815;28;20126;-79
2022/11/23 00:08:22;;;;;;;4.15;2.03;;;9.10;72.60;;;;;;4986759;28;20120;-79
2022/11/23 00:11:07;;;;;;;5.05;2.17;;;9.10;73.20;;;;;;4985298;28;20084;-79
2022/11/23 00:13:52;;;;;;;6.15;2.38;;;9.00;72.50;;;;;;4989410;28;20128;-79
2022/11/23 00:16:36;;;;;;;5.07;2.05;;;9.00;72.60;;;;;;4982207;28;20517;-79
2022/11/23 00:19:21;;;;;;;5.10;1.98;;;9.00;72.60;;;;;;4985960;28;20033;-83
2022/11/23 00:22:05;;;;;;;6.95;2.15;;;8.90;72.50;;;;;;4982594;28;20849;-81
2022/11/23 00:24:50;;;;;;;4.45;1.67;;;8.90;72.50;;;;;;4984236;28;20057;-80
2022/11/23 00:27:35;;;;;;;5.13;1.73;;;8.90;72.50;;;;;;4993183;28;20050;-79
2022/11/23 00:30:19;;;;;;;3.95;1.52;;;8.80;72.40;;;;;;4992044;28;20093;-81
2022/11/23 00:33:04;;;;;;;7.50;1.90;;;8.80;72.40;;;;;;4994684;28;20037;-81
2022/11/23 00:36:05;;;;;;;2.83;1.48;;;8.70;72.30;;;;;;4986784;28;20046;-83
2022/11/23 00:38:50;;;;;;;4.10;1.50;;;8.70;72.40;;;;;;4984893;28;20044;-80
2022/11/23 00:41:34;;;;;;;5.50;2.13;;;8.70;72.40;;;;;;4991108;28;20050;-81
2022/11/23 00:44:20;;;;;;;4.18;1.58;;;8.60;72.20;;;;;;4982593;28;20077;-81
2022/11/23 00:47:04;;;;;;;3.67;1.52;;;8.50;72.10;;;;;;4988647;28;20058;-81
2022/11/23 00:49:52;;;;;;;6.47;1.77;;;8.50;72.10;;;;;;4980889;28;20453;-81
2022/11/23 00:52:36;;;;;;;3.00;1.50;;;8.50;72.20;;;;;;4982608;28;20054;-81
2022/11/23 00:55:21;;;;;;;2.25;1.15;;;8.40;72.00;;;;;;4986052;28;20037;-80
2022/11/23 00:58:06;;;;;;;6.10;1.38;;;8.40;72.10;;;;;;4974426;28;20050;-81
2022/11/23 01:01:00;;;;;;;8.88;2.10;;;8.30;71.90;;;;;;4969257;28;20104;-80
2022/11/23 01:03:46;;;;;;;5.55;2.00;;;8.30;72.50;;;;;;4990551;28;20041;-80
2022/11/23 01:06:33;;;;;;;5.25;2.42;;;8.30;72.00;;;;;;4987585;28;20123;-78
2022/11/23 01:09:19;;;;;;;3.78;1.20;;;8.20;71.80;;;;;;4990436;28;20092;-80
2022/11/23 01:12:07;;;;;;;4.40;1.25;;;8.20;71.90;;;;;;4965462;28;20137;-80
2022/11/23 01:14:53;;;;;;;3.83;1.27;;;8.20;71.90;;;;;;4983632;28;20038;-80
2022/11/23 01:17:39;;;;;;;6.00;1.48;;;8.10;71.70;;;;;;4983060;28;20111;-81
2022/11/23 01:20:26;;;;;;;3.35;1.17;;;8.10;71.70;;;;;;4986853;28;20049;-80
2022/11/23 01:23:11;;;;;;;3.10;1.30;;;8.10;71.80;;;;;;4987776;28;20107;-80
2022/11/23 01:25:56;;;;;;;3.72;1.08;;;8.00;71.60;;;;;;4986003;28;20154;-80
2022/11/23 01:28:40;;;;;;;5.25;2.08;;;8.00;71.70;;;;;;4986864;28;20053;-81
2022/11/23 01:31:25;;;;;;;6.18;1.33;;;8.00;71.70;;;;;;4969129;28;20065;-80
2022/11/23 01:34:11;;;;;;;5.43;1.60;;;7.90;71.50;;;;;;4980971;28;20464;-80
2022/11/23 01:36:55;;;;;;;3.40;1.08;;;7.90;71.60;;;;;;4976473;28;20923;-81
2022/11/23 01:39:40;;;;;;;3.92;1.42;;;7.80;71.40;;;;;;4987815;28;20158;-82
2022/11/23 01:42:43;;;;;;;4.65;1.33;;;7.90;71.60;;;;;;4986738;28;20045;-82
2022/11/23 01:45:39;;;;;;;4.07;1.10;;;7.80;71.40;;;;;;4982527;28;20046;-82
2022/11/23 01:48:37;;;;;;;2.78;0.90;;;7.80;71.40;;;;;;4969416;28;20065;-82
2022/11/23 01:51:27;;;;;;;5.80;1.30;;;7.70;71.30;;;;;;4994968;28;20417;-81
2022/11/23 01:54:27;;;;;;;7.80;1.58;;;7.60;71.20;;;;;;4971947;28;20040;-81
2022/11/23 01:57:22;;;;;;;5.05;1.52;;;7.60;71.20;;;;;;4987591;28;20053;-82
2022/11/23 02:00:09;;;;;;;2.40;1.00;;;7.60;71.20;;;;;;5008590;28;20082;-82
2022/11/23 02:03:03;;;;;;;4.20;1.23;;;7.60;71.20;;;;;;5011223;28;20082;-80
2022/11/23 02:05:53;;;;;;;3.08;1.80;;;7.50;71.10;;;;;;5013009;28;20069;-80
2022/11/23 02:08:38;;;;;;;4.47;1.20;;;7.50;71.10;;;;;;5003788;28;20085;-80
2022/11/23 02:11:22;;;;;;;7.82;1.20;;;7.50;71.10;;;;;;4995610;28;20085;-81
2022/11/23 02:14:07;;;;;;;2.95;1.00;;;7.40;70.90;;;;;;4990545;28;20060;-81
2022/11/23 02:16:52;;;;;;;6.35;1.40;;;7.40;71.00;;;;;;4991685;28;20169;-82
2022/11/23 02:19:39;;;;;;;4.40;0.95;;;7.40;71.00;;;;;;4987181;28;20049;-81
2022/11/23 02:22:36;;;;;;;6.50;2.13;;;7.30;70.80;;;;;;4986337;28;20041;-82
2022/11/23 02:25:35;;;;;;;4.45;1.77;;;7.30;70.80;;;;;;4982788;28;20054;-82
2022/11/23 02:28:26;;;;;;;4.72;1.40;;;7.30;70.80;;;;;;4980239;28;20517;-83
2022/11/23 02:31:10;;;;;;;3.33;0.80;;;7.30;70.80;;;;;;4991325;28;20426;-81
2022/11/23 02:33:55;;;;;;;2.53;1.05;;;7.30;70.90;;;;;;4989872;28;20030;-79
2022/11/23 02:36:48;;;;;;;10.63;1.88;;;7.30;70.90;;;;;;4990463;28;20109;-80
2022/11/23 02:39:36;;;;;;;4.78;1.30;;;7.30;70.90;;;;;;4979448;28;20472;-80
2022/11/23 02:42:22;;;;;;;4.40;0.90;;;7.30;70.90;;;;;;4987426;28;20062;-79
2022/11/23 02:45:27;;;;;;;7.13;1.55;;;7.30;70.90;;;;;;4978908;28;20104;-79
2022/11/23 02:48:11;;;;;;;3.13;1.23;;;7.40;71.10;;;;;;4981970;28;20121;-79
2022/11/23 02:50:56;;;;;;;8.57;1.55;;;7.40;71.10;;;;;;4988240;28;20108;-79
2022/11/23 02:53:42;;;;;;;5.07;1.30;;;7.40;71.00;;;;;;4987688;28;20041;-79
2022/11/23 02:56:27;;;;;;;4.50;1.35;;;7.50;71.20;;;;;;4969632;28;20801;-78
2022/11/23 02:59:12;;;;;;;7.22;2.17;;;7.50;71.10;;;;;;4987627;28;20100;-79
2022/11/23 03:01:58;;;;;;;5.05;1.60;;;7.60;71.30;;;;;;4988377;28;20093;-80
2022/11/23 03:04:42;;;;;;;6.45;1.88;;;7.60;71.20;;;;;;4984601;28;20093;-80
2022/11/23 03:07:27;;;;;;;3.03;1.05;;;7.70;71.40;;;;;;4990563;28;20496;-81
2022/11/23 03:10:12;;;;;;;5.82;1.33;;;7.70;71.30;;;;;;4990350;28;20049;-81
2022/11/23 03:12:56;;;;;;;5.75;1.45;;;7.70;71.30;;;;;;4990933;28;20174;-79
2022/11/23 03:15:43;;;;;;;9.73;1.33;;;7.80;71.50;;;;;;4988717;28;20092;-80
2022/11/23 03:18:28;;;;;;;11.00;1.70;;;7.80;71.50;;;;;;4988669;28;20278;-79
2022/11/23 03:21:12;;;;;;;4.28;1.33;;;7.80;71.40;;;;;;4989699;28;20053;-79
2022/11/23 03:23:57;;;;;;;7.60;1.85;;;7.90;71.60;;;;;;4977315;28;20101;-78
2022/11/23 03:26:42;;;;;;;5.32;1.00;;;7.90;71.60;;;;;;4980297;28;20038;-80
2022/11/23 03:29:28;;;;;;;5.10;1.05;;;8.00;71.70;;;;;;4988506;28;20036;-80
2022/11/23 03:32:15;;;;;;;9.00;1.30;;;8.00;71.70;;;;;;4987640;28;20093;-80
2022/11/23 03:35:04;;;;;;;4.40;1.83;;;8.00;71.60;;;;;;4970685;28;20104;-80
2022/11/23 03:37:51;;;;;;;6.53;1.60;;;8.10;71.70;;;;;;4989172;28;20506;-80
2022/11/23 03:40:36;;;;;;;5.43;1.27;;;8.10;71.70;;;;;;4976471;28;20500;-81
2022/11/23 03:43:37;;;;;;;7.30;1.40;;;8.20;71.80;;;;;;4990512;28;20057;-80
2022/11/23 03:46:21;;;;;;;6.70;1.60;;;8.20;71.80;;;;;;4981694;28;20046;-80
2022/11/23 03:49:06;;;;;;;7.25;1.48;;;8.20;71.80;;;;;;4981206;28;20077;-80
2022/11/23 03:51:51;;;;;;;5.05;1.40;;;8.30;72.00;;;;;;4992028;28;20118;-81
2022/11/23 03:54:36;;;;;;;5.35;1.42;;;8.30;71.90;;;;;;4988179;28;20073;-80
2022/11/23 03:57:21;;;;;;;6.57;2.70;;;8.30;71.90;;;;;;4982234;28;20113;-80
2022/11/23 04:00:07;;;;;;;7.47;1.67;;;8.40;72.00;;;;;;4991532;28;20041;-79
2022/11/23 04:02:57;;;;;;;6.57;1.48;;;8.50;72.20;;;;;;4986751;28;20061;-80
2022/11/23 04:06:05;;;;;;;4.30;1.50;;;8.50;72.10;;;;;;4994207;28;20053;-80
2022/11/23 04:08:59;;;;;;;7.40;1.27;;;8.60;72.20;;;;;;4991860;28;20058;-80
2022/11/23 04:12:05;;;;;;;3.97;0.70;;;8.70;72.30;;;;;;4984504;28;20101;-80
2022/11/23 04:14:50;;;;;;;6.45;1.40;;;8.70;72.20;;;;;;4992867;28;20477;-80
2022/11/23 04:17:35;;;;;;;2.80;1.08;;;8.80;72.70;;;;;;4988949;28;20080;-80
2022/11/23 04:20:20;;;;;;;6.25;0.95;;;8.80;72.40;;;;;;4992165;28;20142;-81
2022/11/23 04:23:05;;;;;;;6.20;2.17;;;8.90;72.60;;;;;;4994120;28;20053;-80
2022/11/23 04:25:51;;;;;;;7.25;1.33;;;9.00;72.70;;;;;;4973991;28;20061;-80
2022/11/23 04:28:37;;;;;;;6.38;1.17;;;9.00;72.70;;;;;;4982333;28;20068;-83
2022/11/23 04:31:21;;;;;;;3.00;1.30;;;9.10;72.80;;;;;;4984770;28;20041;-81
2022/11/23 04:34:12;;;;;;;6.70;1.08;;;9.10;72.80;;;;;;4995595;28;20061;-82
2022/11/23 04:36:57;;;;;;;5.57;1.48;;;9.20;72.90;;;;;;4992274;28;20100;-79
2022/11/23 04:39:48;;;;;;;6.53;1.17;;;9.20;72.90;;;;;;4990374;28;20552;-80
2022/11/23 04:42:44;;;;;;;3.33;1.15;;;9.30;73.10;;;;;;4981231;28;20128;-81
2022/11/23 04:45:29;;;;;;;6.60;1.52;;;9.40;73.20;;;;;;4985055;28;20593;-81
2022/11/23 04:48:18;;;;;;;6.07;1.98;;;9.40;73.20;;;;;;4985816;28;20041;-80
2022/11/23 04:51:03;;;;;;;5.15;1.15;;;9.40;73.20;;;;;;4987950;28;20081;-80
2022/11/23 04:53:53;;;;;;;7.18;1.30;;;9.50;73.30;;;;;;4978838;28;20044;-80
2022/11/23 04:56:38;;;;;;;4.68;1.55;;;9.60;73.50;;;;;;4993319;28;20576;-82
2022/11/23 04:59:23;;;;;;;6.28;1.40;;;9.60;73.40;;;;;;4995905;28;20049;-81
2022/11/23 05:02:09;;;;;;;3.20;1.20;;;9.70;73.60;;;;;;4977009;28;20121;-82
2022/11/23 05:04:53;;;;;;;2.55;1.13;;;9.70;73.60;;;;;;4996409;28;20102;-82
2022/11/23 05:07:41;;;;;;;5.30;1.30;;;9.80;73.70;;;;;;4990276;28;20045;-83
2022/11/23 05:10:27;;;;;;;3.92;0.95;;;9.80;73.70;;;;;;4976016;28;20118;-82
2022/11/23 05:13:16;;;;;;;3.42;0.88;;;9.90;73.80;;;;;;4990536;28;20042;-82
2022/11/23 05:16:01;;;;;;;4.78;1.02;;;9.90;73.80;;;;;;4983127;28;20109;-82
2022/11/23 05:18:46;;;;;;;5.82;1.40;;;10.00;74.00;;;;;;4990704;28;20386;-82
2022/11/23 05:21:31;;;;;;;5.38;1.25;;;10.00;74.00;;;;;;4991142;28;20053;-83
2022/11/23 05:24:17;;;;;;;4.03;0.90;;;10.00;74.00;;;;;;4991387;28;20858;-82
2022/11/23 05:27:14;;;;;;;3.45;0.80;;;10.10;74.20;;;;;;4988576;28;20100;-83
2022/11/23 05:29:58;;;;;;;4.57;1.10;;;10.10;74.20;;;;;;4994798;28;20117;-84
2022/11/23 05:32:44;;;;;;;1.35;0.75;;;10.10;74.20;;;;;;4980615;28;20405;-83
2022/11/23 05:35:29;;;;;;;3.00;0.75;;;10.10;74.20;;;;;;4976442;28;20077;-82
2022/11/23 05:38:14;;;;;;;2.58;0.82;;;10.20;74.40;;;;;;4984406;28;20045;-82
2022/11/23 05:41:00;;;;;;;4.20;0.90;;;10.20;74.40;;;;;;4989580;28;20045;-83
2022/11/23 05:43:45;;;;;;;3.70;0.95;;;10.20;74.90;;;;;;4983411;28;20050;-82
2022/11/23 05:46:35;;;;;;;2.88;1.35;;;10.30;74.60;;;;;;4970161;28;20098;-83
2022/11/23 05:49:20;;;;;;;1.67;0.98;;;10.30;74.60;;;;;;4981293;28;20068;-83
2022/11/23 05:52:05;;;;;;;2.17;0.60;;;10.30;74.60;;;;;;4983512;28;20044;-83
2022/11/23 05:54:50;;;;;;;2.42;0.60;;;10.40;74.80;;;;;;4981823;28;20049;-82
2022/11/23 05:57:34;;;;;;;5.28;1.00;;;10.40;74.80;;;;;;4976882;28;20111;-81
2022/11/23 06:00:20;;;;;;;1.95;0.52;;;10.50;74.90;;;;;;4983135;28;20049;-82
2022/11/23 06:03:14;;;;;;;1.42;0.70;;;10.50;74.90;;;;;;4984424;28;20104;-87
2022/11/23 06:05:59;;;;;;;5.30;0.73;;;10.60;75.00;;;;;;4984061;28;20113;-85
2022/11/23 06:08:49;;;;;;;1.73;0.70;;;10.60;74.90;;;;;;4985361;28;20061;-82
2022/11/23 06:11:35;;;;;;;4.03;0.75;;;10.60;74.90;;;;;;4969878;28;20379;-83
2022/11/23 06:14:25;;;;;;;1.70;0.80;;;10.70;75.10;;;;;;4981413;28;20679;-82
2022/11/23 06:17:10;;;;;;;0.57;0.40;;;10.80;75.30;;;;;;4968533;28;20422;-85
2022/11/23 06:20:06;;;;;;;2.33;0.80;;;10.80;75.20;;;;;;4978397;28;20078;-82
2022/11/23 06:22:54;;;;;;;2.25;0.47;;;10.80;75.20;;;;;;4981903;28;20829;-87
2022/11/23 06:25:40;;;;;;;0.82;0.50;;;10.90;75.40;;;;;;4982585;28;20055;-85
2022/11/23 06:28:40;;;;;;;0.98;0.35;;;10.90;75.40;;;;;;4983424;28;20053;-83
2022/11/23 06:31:26;;;;;;;1.35;0.40;;;10.90;75.40;;;;;;4979508;28;20862;-84
2022/11/23 06:34:11;;;;;;;2.67;0.50;;;11.00;75.60;;;;;;4978353;28;20050;-82
2022/11/23 06:36:55;;;;;;;1.80;0.88;;;11.10;75.80;;;;;;4982141;28;20186;-82
2022/11/23 06:39:42;;;;;;;2.00;0.63;;;11.10;75.90;;;;;;4983455;28;20593;-86
2022/11/23 06:42:26;;;;;;;1.48;0.40;;;11.10;75.90;;;;;;4982149;28;20072;-87
2022/11/23 06:45:11;;;;;;;0.57;0.32;;;11.10;75.90;;;;;;4982143;28;20189;-86
2022/11/23 06:47:56;;;;;;;1.50;1.25;;;11.10;76.00;;;;;;4982614;28;20061;-83
2022/11/23 06:50:42;;;;;;;0.50;0.30;;;11.20;76.20;;;;;;4984491;28;20161;-89
2022/11/23 06:53:27;;;;;;;1.08;0.28;;;11.20;76.20;;;;;;4984275;28;21354;-93
2022/11/23 06:56:17;;;;;;;0.57;0.40;;;11.20;76.20;;;;;;4969435;28;20625;-89
2022/11/23 06:59:01;;;;;;;1.13;0.52;;;11.30;76.40;;;;;;4983737;28;20108;-88
2022/11/23 07:01:48;;;;;;;0.60;0.50;;;11.30;76.40;;;;;;4956626;28;20332;-87
2022/11/23 07:04:33;;;;;;;0.98;0.45;;;11.30;76.40;;;;;;4983943;28;20951;-88
2022/11/23 07:07:17;;;;;;;1.08;0.77;;;11.30;76.40;;;;;;4973335;28;20041;-85
2022/11/23 07:10:08;;;;;;;2.60;0.98;;;11.30;76.40;;;;;;4982642;28;20037;-85
2022/11/23 07:13:04;;;;;;;1.25;0.63;;;11.30;76.50;;;;;;4983693;28;20038;-79
2022/11/23 07:15:48;;;;;;;9.15;1.83;;;11.30;76.50;;;;;;4969363;28;20049;-79
2022/11/23 07:18:34;;;;;;;6.53;1.27;;;11.30;76.60;;;;;;4972793;28;20670;-79
2022/11/23 07:21:19;;;;;;;6.10;1.30;;;11.30;76.60;;;;;;4983292;28;20073;-86
2022/11/23 07:24:04;;;;;;;6.78;1.58;;;11.30;76.60;;;;;;4985623;28;20104;-80
2022/11/23 07:26:49;;;;;;;7.30;1.27;;;11.30;76.60;;;;;;4986527;28;20041;-82
2022/11/23 07:29:33;;;;;;;7.70;1.30;;;11.20;76.50;;;;;;4983471;28;20440;-82
2022/11/23 07:32:18;;;;;;;7.60;1.80;;;11.30;76.70;;;;;;4984595;28;20049;-82
2022/11/23 07:35:03;;;;;;;8.18;2.10;;;11.20;76.50;;;;;;4980682;28;20049;-81
2022/11/23 07:37:51;;;;;;;9.20;1.48;;;11.20;76.60;;;;;;4976350;28;20057;-84
2022/11/23 07:40:38;;;;;;;6.25;1.40;;;11.30;76.70;;;;;;4987748;28;20484;-83
2022/11/23 07:43:23;;;;;;;8.10;1.25;;;11.20;76.50;;;;;;4984829;28;20475;-83
2022/11/23 07:46:07;;;;;;;4.55;1.80;;;11.20;76.50;;;;;;4976552;28;20529;-83
2022/11/23 07:48:53;;;;;;;8.85;1.50;;;11.30;76.60;;;;;;4973308;28;20509;-84
2022/11/23 07:51:37;;;;;;;6.55;1.85;;;11.30;76.50;;;;;;4968966;28;20069;-83
2022/11/23 07:54:22;;;;;;;7.80;1.25;;;11.30;76.40;;;;;;4982467;28;20489;-81
2022/11/23 07:57:06;;;;;;;8.70;1.73;;;11.30;76.40;;;;;;4980385;28;20414;-78
2022/11/23 07:59:51;;;;;;;6.70;1.15;;;11.30;76.30;;;;;;4973416;28;20049;-77
2022/11/23 08:02:36;;;;;;;8.40;2.42;;;11.30;76.30;;;;;;4980960;28;20132;-81
2022/11/23 08:05:21;;;;;;;5.85;1.73;;;11.20;76.00;;;;;;4979521;28;20057;-83
2022/11/23 08:08:05;;;;;;;8.02;2.42;;;11.20;76.00;;;;;;4988863;28;20041;-81
2022/11/23 08:10:50;;;;;;;8.27;1.52;;;11.20;75.90;;;;;;4980348;28;20613;-83
2022/11/23 08:13:36;;;;;;;10.02;2.55;;;11.20;75.90;;;;;;4992390;28;20522;-80
2022/11/23 08:16:21;;;;;;;9.73;1.50;;;11.20;75.80;;;;;;4989790;28;20092;-77
2022/11/23 08:19:05;;;;;;;9.63;2.10;;;11.20;75.80;;;;;;4994646;28;20065;-78
2022/11/23 08:21:50;;;;;;;7.60;1.38;;;11.20;75.80;;;;;;4983488;28;20502;-83
2022/11/23 08:24:34;;;;;;;6.97;1.90;;;11.30;75.90;;;;;;4991557;28;20413;-81
2022/11/23 08:27:19;;;;;;;11.25;2.05;;;11.20;75.60;;;;;;4975559;28;20082;-84
2022/11/23 08:30:04;;;;;;;4.22;1.30;;;11.30;75.70;;;;;;4987053;28;20162;-80
2022/11/23 08:32:48;;;;;;;5.65;1.52;;;11.30;75.60;;;;;;4983908;28;20049;-80
2022/11/23 08:35:38;;;;;;;7.70;1.52;;;11.30;75.50;;;;;;4982941;28;20052;-81
2022/11/23 08:38:22;;;;;;;13.68;1.92;;;11.30;75.50;;;;;;4982258;28;20085;-89
2022/11/23 08:41:07;;;;;;;6.75;1.35;;;11.30;75.40;;;;;;4983146;28;20451;-85
2022/11/23 08:43:52;;;;;;;8.80;1.38;;;11.30;75.30;;;;;;4979647;28;20095;-84
2022/11/23 08:46:37;;;;;;;7.53;1.50;;;11.30;75.30;;;;;;4983437;28;20327;-80
2022/11/23 08:49:21;;;;;;;8.05;1.50;;;11.30;75.20;;;;;;4987578;28;20109;-81
2022/11/23 08:52:05;;;;;;;8.43;1.75;;;11.30;75.10;;;;;;4988065;28;20493;-79
2022/11/23 08:54:50;;;;;;;6.55;2.65;;;11.40;75.20;;;;;;4987783;28;20049;-80
2022/11/23 08:57:34;;;;;;;7.93;1.30;;;11.30;75.00;;;;;;4983557;28;20132;-89
2022/11/23 09:00:19;;;;;;;9.30;2.42;;;11.30;74.90;;;;;;4987078;28;20041;-88
2022/11/23 09:03:04;;;;;;;6.25;1.35;;;11.30;74.80;;;;;;4966050;28;20144;-87
2022/11/23 09:05:50;;;;;;;8.95;1.52;;;11.30;74.90;;;;;;4980823;28;20132;-85
2022/11/23 09:08:34;;;;;;;7.13;1.63;;;11.30;74.80;;;;;;4982319;28;20108;-86
2022/11/23 09:11:19;;;;;;;5.25;1.58;;;11.30;74.80;;;;;;4981965;28;20065;-85
2022/11/23 09:14:03;;;;;;;10.98;2.30;;;11.30;74.80;;;;;;4986674;28;20402;-81
2022/11/23 09:16:48;;;;;;;6.63;2.00;;;11.20;75.10;;;;;;4979117;28;20069;-81
2022/11/23 09:19:33;;;;;;;5.47;1.60;;;11.20;74.60;;;;;;4979604;28;20105;-81
2022/11/23 09:22:17;;;;;;;12.18;3.15;;;11.30;74.70;;;;;;4980146;28;20053;-92
2022/11/23 09:25:03;;;;;;;8.57;2.35;;;11.20;74.40;;;;;;4987008;28;20061;-88
2022/11/23 09:27:48;;;;;;;9.60;2.33;;;11.30;74.60;;;;;;4981363;28;20512;-87
2022/11/23 09:30:32;;;;;;;11.38;2.58;;;11.30;74.50;;;;;;4984404;28;20453;-87
2022/11/23 09:33:17;;;;;;;10.88;2.15;;;11.40;74.40;;;;;;4984384;28;20086;-84
2022/11/23 09:36:03;;;;;;;12.02;3.42;;;11.40;74.40;;;;;;4980549;28;20203;-85
2022/11/23 09:38:51;;;;;;;9.43;2.53;;;11.40;74.30;;;;;;4984415;28;20609;-86
2022/11/23 09:41:50;;;;;;;15.57;3.78;;;11.50;74.40;;;;;;4974591;28;20394;-85
2022/11/23 09:45:13;;;;;;;15.98;3.22;;;11.60;74.20;;;;;;4984766;28;20112;-86
2022/11/23 09:48:24;;;;;;;15.18;2.72;;;11.70;74.00;;;;;;4968032;28;20122;-83
2022/11/23 09:51:20;;;;;;;13.25;2.97;;;11.80;74.00;;;;;;4973858;28;20129;-85
2022/11/23 09:54:21;;;;;;;10.77;2.72;;;11.90;74.10;;;;;;4985982;28;20037;-80
2022/11/23 09:57:09;;;;;;;15.45;3.30;;;11.90;73.90;;;;;;4983670;28;20045;-79
2022/11/23 10:00:07;;;;;;;13.18;3.17;;;12.00;73.90;;;;;;4985290;28;20401;-80
2022/11/23 10:02:52;;;;;;;17.65;4.55;;;12.10;73.90;;;;;;4977327;28;20165;-80
2022/11/23 10:05:38;;;;;;;18.77;6.22;;;12.10;73.70;;;;;;4972174;28;20103;-79
2022/11/23 10:08:37;;;;;;;14.43;2.83;;;12.20;73.80;;;;;;4981304;28;20072;-79
2022/11/23 10:11:30;;;;;;;11.98;3.70;;;12.30;73.80;;;;;;4984035;28;20561;-80
2022/11/23 10:14:33;;;;;;;16.65;3.60;;;12.40;73.80;;;;;;4985274;28;20240;-79
2022/11/23 10:17:39;;;;;;;14.18;2.72;;;12.50;73.60;;;;;;4974625;28;20410;-80
2022/11/23 10:20:38;;;;;;;9.80;4.13;;;12.50;73.40;;;;;;4973039;28;20057;-86
2022/11/23 10:23:28;;;;;;;11.88;3.25;;;12.50;73.30;;;;;;4984629;28;20036;-81
2022/11/23 10:26:18;;;;;;;11.77;2.70;;;12.60;73.50;;;;;;4985919;28;20048;-79
2022/11/23 10:29:16;;;;;;;14.98;3.42;;;12.60;73.40;;;;;;4983530;28;20074;-79
2022/11/23 10:32:00;;;;;;;16.17;3.30;;;12.60;73.20;;;;;;4973932;28;20046;-80
2022/11/23 10:34:54;;;;;;;9.43;2.80;;;12.60;73.10;;;;;;4979572;28;20053;-81
2022/11/23 10:37:39;;;;;;;11.93;2.90;;;12.60;73.10;;;;;;4981917;28;20092;-79
2022/11/23 10:40:28;;;;;;;21.98;4.10;;;12.60;73.10;;;;;;4986211;28;20080;-80
2022/11/23 10:43:19;;;;;;;16.40;3.33;;;12.60;73.60;;;;;;4975855;28;20050;-79
2022/11/23 10:46:36;;;;;;;17.48;3.58;;;12.70;73.20;;;;;;4977893;28;20053;-79
2022/11/23 10:49:22;;;;;;;17.67;5.25;;;12.80;73.20;;;;;;4989314;28;20092;-80
2022/11/23 10:52:30;;;;;;;16.00;3.47;;;12.90;73.10;;;;;;4990983;28;20577;-85
2022/11/23 10:55:16;;;;;;;12.52;2.72;;;13.10;72.90;;;;;;4983005;28;20038;-83
2022/11/23 10:58:01;;;;;;;13.73;3.65;;;13.30;72.80;;;;;;4980383;28;20041;-83
2022/11/23 11:00:55;;;;;;;15.73;4.82;;;13.50;72.70;;;;;;4976474;28;20077;-85
2022/11/23 11:03:40;;;;;;;10.63;3.85;;;13.60;72.50;;;;;;4980289;28;20625;-82
2022/11/23 11:06:32;;;;;;;14.07;3.55;;;13.60;72.80;;;;;;4983476;28;20096;-82
2022/11/23 11:09:19;;;;;;;10.63;2.85;;;13.60;72.10;;;;;;4983177;28;20350;-81
2022/11/23 11:12:04;;;;;;;12.65;3.45;;;13.60;72.10;;;;;;4982081;28;20430;-82
2022/11/23 11:15:14;;;;;;;9.77;2.90;;;13.60;72.10;;;;;;4984708;28;20146;-82
2022/11/23 11:17:58;;;;;;;7.32;2.78;;;13.50;71.90;;;;;;4978240;28;20092;-82
2022/11/23 11:20:44;;;;;;;15.13;3.35;;;13.50;72.00;;;;;;4982688;28;20181;-81
2022/11/23 11:23:30;;;;;;;8.70;2.35;;;13.40;71.80;;;;;;4984505;28;20045;-82
2022/11/23 11:26:21;;;;;;;9.93;3.38;;;13.40;72.40;;;;;;4981088;28;20101;-93
2022/11/23 11:29:08;;;;;;;9.45;3.28;;;13.40;71.80;;;;;;4983202;28;20041;-80
2022/11/23 11:31:59;;;;;;;11.93;3.45;;;13.40;71.80;;;;;;4974733;28;20494;-80
2022/11/23 11:34:52;;;;;;;10.50;2.47;;;13.40;71.60;;;;;;4984724;28;20100;-80
2022/11/23 11:37:41;;;;;;;11.30;2.53;;;13.50;71.60;;;;;;4981281;28;20449;-83
2022/11/23 11:40:47;;;;;;;11.27;2.88;;;13.60;71.60;;;;;;4983513;28;20454;-80
2022/11/23 11:43:40;;;;;;;12.63;2.20;;;13.60;71.30;;;;;;4972572;28;20049;-81
2022/11/23 11:46:33;;;;;;;9.02;2.38;;;13.60;71.20;;;;;;4971302;28;20057;-79
2022/11/23 11:49:32;;;;;;;9.02;2.50;;;13.70;71.20;;;;;;4987559;28;20064;-83
2022/11/23 11:52:26;;;;;;;10.93;2.00;;;13.70;71.20;;;;;;4977847;28;21225;-84
2022/11/23 11:55:24;;;;;;;12.68;3.40;;;13.80;71.30;;;;;;4984731;28;20478;-84
2022/11/23 11:58:10;;;;;;;9.93;3.67;;;13.80;71.20;;;;;;4968518;28;20214;-88
2022/11/23 12:01:16;;;;;;;18.17;3.65;;;13.80;71.20;;;;;;4983552;28;20089;-87
2022/11/23 12:04:10;;;;;;;10.40;2.78;;;13.70;70.90;;;;;;4984474;28;20406;-84
2022/11/23 12:07:12;;;;;;;11.73;2.85;;;13.70;70.90;;;;;;4981659;28;20505;-83
2022/11/23 12:10:20;;;;;;;11.23;2.78;;;13.70;70.80;;;;;;4982108;28;20410;-80
2022/11/23 12:13:06;;;;;;;11.00;2.75;;;13.60;70.70;;;;;;4985857;28;20520;-84
2022/11/23 12:15:58;;;;;;;12.73;3.35;;;13.60;70.70;;;;;;4982659;28;20831;-85
2022/11/23 12:19:09;;;;;;;11.10;2.30;;;13.60;70.50;;;;;;4987211;28;20053;-84
2022/11/23 12:22:21;;;;;;;12.25;3.30;;;13.60;70.40;;;;;;4979917;28;20041;-81
2022/11/23 12:25:26;;;;;;;11.77;2.42;;;13.60;70.30;;;;;;4986013;28;20517;-83
2022/11/23 12:28:26;;;;;;;10.77;3.75;;;13.60;70.30;;;;;;4986940;28;20049;-84
2022/11/23 12:31:10;;;;;;;11.73;2.40;;;13.60;70.30;;;;;;4986137;28;20196;-84
2022/11/23 12:34:20;;;;;;;10.95;3.30;;;13.60;70.20;;;;;;4972966;28;20049;-82
2022/11/23 12:37:18;;;;;;;13.25;2.70;;;13.60;70.00;;;;;;4979262;28;20042;-81
2022/11/23 12:40:29;;;;;;;12.10;3.42;;;13.60;70.00;;;;;;4985284;28;20049;-80
2022/11/23 12:43:25;;;;;;;12.82;4.72;;;13.70;70.00;;;;;;4970111;28;20525;-79
2022/11/23 12:46:18;;;;;;;10.57;3.67;;;13.80;70.00;;;;;;4972164;28;20057;-82
2022/11/23 12:49:32;;;;;;;10.90;2.45;;;13.90;69.90;;;;;;4986058;28;20069;-82
2022/11/23 12:52:56;;;;;;;12.05;2.70;;;14.00;69.50;;;;;;4987221;28;20042;-80
2022/11/23 12:56:03;;;;;;;12.90;2.90;;;14.20;69.40;;;;;;4984186;28;20076;-81
2022/11/23 12:58:49;;;;;;;14.88;4.35;;;14.40;69.20;;;;;;4984112;28;20108;-81
2022/11/23 13:01:43;;;;;;;11.98;3.13;;;14.60;69.10;;;;;;4986522;28;20069;-81
2022/11/23 13:05:06;;;;;;;12.50;2.85;;;14.80;68.90;;;;;;4981406;28;20049;-83
2022/11/23 13:08:22;;;;;;;7.63;2.53;;;15.00;68.60;;;;;;4989894;28;20521;-87
2022/11/23 13:11:34;;;;;;;10.77;3.05;;;15.10;68.40;;;;;;4970794;28;20148;-89
2022/11/23 13:14:21;;;;;;;8.32;2.60;;;15.40;68.40;;;;;;4973884;28;20033;-85
2022/11/23 13:17:44;;;;;;;13.30;2.67;;;15.50;68.30;;;;;;4968451;28;20049;-83
2022/11/23 13:20:48;;;;;;;18.65;3.58;;;15.60;67.80;;;;;;4985553;28;20045;-84
2022/11/23 13:23:37;;;;;;;11.73;2.83;;;15.70;67.60;;;;;;4975539;28;20104;-83
2022/11/23 13:26:32;;;;;;;13.93;3.70;;;15.70;67.60;;;;;;4986985;28;20513;-84
2022/11/23 13:29:48;;;;;;;9.93;3.00;;;15.60;67.40;;;;;;4982172;28;20088;-87
2022/11/23 13:32:38;;;;;;;10.43;3.03;;;15.50;67.20;;;;;;4987451;28;20569;-89
2022/11/23 13:35:23;;;;;;;14.40;3.67;;;15.30;67.30;;;;;;4977092;28;20387;-85
2022/11/23 13:38:14;;;;;;;12.77;3.10;;;15.20;67.50;;;;;;4979743;28;20416;-85
2022/11/23 13:40:59;;;;;;;11.30;2.25;;;15.10;67.40;;;;;;4991049;28;20053;-90
2022/11/23 13:43:45;;;;;;;7.03;2.13;;;15.00;67.40;;;;;;4989521;28;20057;-92
2022/11/23 13:46:31;;;;;;;9.02;2.83;;;14.90;67.30;;;;;;4995877;28;20142;-90
2022/11/23 13:49:44;;;;;;;9.77;2.50;;;14.80;67.30;;;;;;4995970;28;20109;-91
2022/11/23 13:52:30;;;;;;;14.40;3.70;;;14.70;67.10;;;;;;4986712;28;20135;-86
2022/11/23 13:55:19;;;;;;;13.15;3.35;;;14.60;67.30;;;;;;4988556;28;20045;-86
2022/11/23 13:58:25;;;;;;;10.75;2.80;;;14.50;67.20;;;;;;4981874;28;20088;-86
2022/11/23 14:01:09;;;;;;;12.75;3.70;;;14.50;67.30;;;;;;4979235;28;20406;-86
2022/11/23 14:03:54;;;;;;;7.88;2.50;;;14.40;67.30;;;;;;4990335;28;20465;-85
2022/11/23 14:06:45;;;;;;;7.65;3.15;;;14.30;67.20;;;;;;4990792;28;20049;-85
2022/11/23 14:09:38;;;;;;;9.60;2.60;;;14.30;67.30;;;;;;4979519;28;20533;-86
2022/11/23 14:12:49;;;;;;;12.25;2.60;;;14.30;67.30;;;;;;4977996;28;20120;-84
2022/11/23 14:15:37;;;;;;;11.82;2.63;;;14.20;67.20;;;;;;4970594;28;20775;-83
2022/11/23 14:18:53;;;;;;;8.02;2.30;;;14.20;67.50;;;;;;4984031;28;20041;-84
2022/11/23 14:21:47;;;;;;;8.98;2.10;;;14.10;67.30;;;;;;4984236;28;20062;-84
2022/11/23 14:25:10;;;;;;;14.77;4.93;;;14.10;68.00;;;;;;4986296;28;20389;-89
2022/11/23 14:27:55;;;;;;;9.35;2.10;;;14.10;67.50;;;;;;4983697;28;20072;-82
2022/11/23 14:31:17;;;;;;;11.75;2.60;;;14.10;67.60;;;;;;4985126;28;20105;-88
2022/11/23 14:34:41;;;;;;;9.32;1.95;;;14.00;67.40;;;;;;4986099;28;20053;-80
2022/11/23 14:37:38;;;;;;;10.65;2.53;;;14.10;67.60;;;;;;4965657;28;20045;-86
2022/11/23 14:40:50;;;;;;;9.68;3.03;;;14.00;67.50;;;;;;4969952;28;20607;-83
2022/11/23 14:43:38;;;;;;;10.15;2.20;;;14.10;67.60;;;;;;4971880;28;20057;-86
2022/11/23 14:46:24;;;;;;;12.18;3.08;;;14.10;67.60;;;;;;4974309;28;20108;-84